sensor_id;sensor_type;location;lat;lon;timestamp;pressure;altitude;pressure_sealevel;temperature;humidity
56400;BME280;42298;53.638;9.876;2022-10-29T00:01:28;101774.16;;;19.48;68.77
56400;BME280;42298;53.638;9.876;2022-10-29T00:03:53;101761.09;;;19.40;68.63
56400;BME280;42298;53.638;9.876;2022-10-29T00:06:18;101772.63;;;19.39;68.96
56400;BME280;42298;53.638;9.876;2022-10-29T00:08:44;101784.66;;;19.51;68.56
56400;BME280;42298;53.638;9.876;2022-10-29T00:11:17;101784.44;;;19.56;68.02
56400;BME280;42298;53.638;9.876;2022-10-29T00:13:43;101786.63;;;19.51;68.45
56400;BME280;42298;53.638;9.876;2022-10-29T00:16:12;101793.97;;;19.55;68.14
56400;BME280;42298;53.638;9.876;2022-10-29T00:18:37;101783.72;;;19.47;68.19
56400;BME280;42298;53.638;9.876;2022-10-29T00:21:05;101758.47;;;19.23;68.67
56400;BME280;42298;53.638;9.876;2022-10-29T00:23:31;101770.53;;;19.15;68.66
56400;BME280;42298;53.638;9.876;2022-10-29T00:25:57;101787.97;;;19.12;68.85
56400;BME280;42298;53.638;9.876;2022-10-29T00:28:23;101781.88;;;19.10;69.17
56400;BME280;42298;53.638;9.876;2022-10-29T00:30:48;101783.94;;;19.01;69.53
56400;BME280;42298;53.638;9.876;2022-10-29T00:33:13;101783.69;;;18.94;69.46
56400;BME280;42298;53.638;9.876;2022-10-29T00:35:40;101803.38;;;18.98;69.71
56400;BME280;42298;53.638;9.876;2022-10-29T00:38:07;101798.81;;;18.93;69.28
56400;BME280;42298;53.638;9.876;2022-10-29T00:40:38;101801.44;;;18.89;69.55
56400;BME280;42298;53.638;9.876;2022-10-29T00:43:14;101795.72;;;18.86;69.73
56400;BME280;42298;53.638;9.876;2022-10-29T00:45:45;101805.75;;;18.87;68.94
56400;BME280;42298;53.638;9.876;2022-10-29T00:48:12;101812.53;;;18.77;69.51
56400;BME280;42298;53.638;9.876;2022-10-29T00:50:37;101801.91;;;18.71;69.61
56400;BME280;42298;53.638;9.876;2022-10-29T00:53:03;101802.56;;;18.68;69.91
56400;BME280;42298;53.638;9.876;2022-10-29T00:55:28;101806.53;;;18.67;70.01
56400;BME280;42298;53.638;9.876;2022-10-29T00:57:55;101809.66;;;18.65;69.93
56400;BME280;42298;53.638;9.876;2022-10-29T01:00:21;101804.41;;;18.64;70.48
56400;BME280;42298;53.638;9.876;2022-10-29T01:02:46;101808.56;;;18.58;70.27
56400;BME280;42298;53.638;9.876;2022-10-29T01:05:18;101812.63;;;18.60;70.42
56400;BME280;42298;53.638;9.876;2022-10-29T01:07:45;101823.19;;;18.55;70.95
56400;BME280;42298;53.638;9.876;2022-10-29T01:10:11;101806.16;;;18.48;70.42
56400;BME280;42298;53.638;9.876;2022-10-29T01:13:06;101804.31;;;18.52;70.52
56400;BME280;42298;53.638;9.876;2022-10-29T01:15:40;101817.94;;;18.53;70.39
56400;BME280;42298;53.638;9.876;2022-10-29T01:21:02;101823.41;;;18.41;70.32
56400;BME280;42298;53.638;9.876;2022-10-29T01:26:54;101832.63;;;18.42;70.93
56400;BME280;42298;53.638;9.876;2022-10-29T01:29:54;101840.50;;;18.40;70.85
56400;BME280;42298;53.638;9.876;2022-10-29T01:35:01;101839.00;;;18.34;70.73
56400;BME280;42298;53.638;9.876;2022-10-29T01:37:46;101822.00;;;18.27;70.79
56400;BME280;42298;53.638;9.876;2022-10-29T01:40:23;101833.31;;;18.22;71.10
56400;BME280;42298;53.638;9.876;2022-10-29T01:42:56;101837.59;;;18.19;70.60
56400;BME280;42298;53.638;9.876;2022-10-29T01:45:34;101826.00;;;18.09;70.72
56400;BME280;42298;53.638;9.876;2022-10-29T01:48:06;101823.88;;;18.06;70.73
56400;BME280;42298;53.638;9.876;2022-10-29T01:50:35;101831.75;;;18.04;70.97
56400;BME280;42298;53.638;9.876;2022-10-29T01:53:03;101826.03;;;18.00;71.00
56400;BME280;42298;53.638;9.876;2022-10-29T01:55:31;101830.28;;;17.98;71.03
56400;BME280;42298;53.638;9.876;2022-10-29T01:58:00;101828.38;;;17.90;71.24
56400;BME280;42298;53.638;9.876;2022-10-29T02:00:30;101840.97;;;17.96;71.21
56400;BME280;42298;53.638;9.876;2022-10-29T02:06:14;101847.69;;;17.95;71.04
56400;BME280;42298;53.638;9.876;2022-10-29T02:13:47;101840.66;;;17.89;71.26
56400;BME280;42298;53.638;9.876;2022-10-29T02:16:15;101840.19;;;17.78;71.43
56400;BME280;42298;53.638;9.876;2022-10-29T02:18:48;101842.19;;;17.78;71.38
56400;BME280;42298;53.638;9.876;2022-10-29T02:21:18;101836.78;;;17.73;71.44
56400;BME280;42298;53.638;9.876;2022-10-29T02:23:43;101831.38;;;17.68;71.85
56400;BME280;42298;53.638;9.876;2022-10-29T02:26:09;101837.44;;;17.70;71.46
56400;BME280;42298;53.638;9.876;2022-10-29T02:28:36;101831.19;;;17.73;71.71
56400;BME280;42298;53.638;9.876;2022-10-29T02:31:01;101830.19;;;17.77;70.91
56400;BME280;42298;53.638;9.876;2022-10-29T02:33:26;101840.19;;;17.78;70.97
56400;BME280;42298;53.638;9.876;2022-10-29T02:35:52;101840.53;;;17.85;71.13
56400;BME280;42298;53.638;9.876;2022-10-29T02:38:17;101835.06;;;17.89;71.40
56400;BME280;42298;53.638;9.876;2022-10-29T02:40:42;101820.34;;;17.88;70.88
56400;BME280;42298;53.638;9.876;2022-10-29T02:43:08;101822.59;;;17.95;71.25
56400;BME280;42298;53.638;9.876;2022-10-29T02:45:33;101822.44;;;18.00;70.48
56400;BME280;42298;53.638;9.876;2022-10-29T02:47:58;101806.03;;;17.98;70.84
56400;BME280;42298;53.638;9.876;2022-10-29T02:50:23;101811.78;;;18.02;70.10
56400;BME280;42298;53.638;9.876;2022-10-29T02:52:49;101811.78;;;18.02;71.02
56400;BME280;42298;53.638;9.876;2022-10-29T02:55:14;101813.56;;;18.06;70.51
56400;BME280;42298;53.638;9.876;2022-10-29T02:57:42;101813.03;;;18.13;70.32
56400;BME280;42298;53.638;9.876;2022-10-29T03:00:08;101820.94;;;18.11;69.84
56400;BME280;42298;53.638;9.876;2022-10-29T03:02:34;101829.75;;;18.13;69.72
56400;BME280;42298;53.638;9.876;2022-10-29T03:04:59;101828.13;;;18.12;70.21
56400;BME280;42298;53.638;9.876;2022-10-29T03:07:24;101817.13;;;18.15;69.76
56400;BME280;42298;53.638;9.876;2022-10-29T03:09:50;101829.09;;;18.16;69.99
56400;BME280;42298;53.638;9.876;2022-10-29T03:12:15;101827.63;;;18.18;70.01
56400;BME280;42298;53.638;9.876;2022-10-29T03:14:40;101821.03;;;18.23;70.49
56400;BME280;42298;53.638;9.876;2022-10-29T03:17:07;101833.31;;;18.22;69.55
56400;BME280;42298;53.638;9.876;2022-10-29T03:19:32;101846.81;;;18.11;70.55
56400;BME280;42298;53.638;9.876;2022-10-29T03:21:57;101834.91;;;17.94;71.25
56400;BME280;42298;53.638;9.876;2022-10-29T03:24:23;101844.31;;;17.81;72.47
56400;BME280;42298;53.638;9.876;2022-10-29T03:26:48;101837.94;;;17.72;72.21
56400;BME280;42298;53.638;9.876;2022-10-29T03:29:13;101839.41;;;17.78;72.44
56400;BME280;42298;53.638;9.876;2022-10-29T03:31:38;101831.66;;;17.83;72.86
56400;BME280;42298;53.638;9.876;2022-10-29T03:34:04;101817.69;;;17.92;72.94
56400;BME280;42298;53.638;9.876;2022-10-29T03:36:29;101803.59;;;17.97;72.05
56400;BME280;42298;53.638;9.876;2022-10-29T03:38:55;101811.91;;;18.05;71.66
56400;BME280;42298;53.638;9.876;2022-10-29T03:41:20;101819.28;;;18.10;71.21
56400;BME280;42298;53.638;9.876;2022-10-29T03:43:45;101829.75;;;18.13;71.42
56400;BME280;42298;53.638;9.876;2022-10-29T03:46:11;101820.94;;;18.02;70.66
56400;BME280;42298;53.638;9.876;2022-10-29T03:48:36;101821.28;;;18.01;71.18
56400;BME280;42298;53.638;9.876;2022-10-29T03:51:03;101807.66;;;17.99;70.54
56400;BME280;42298;53.638;9.876;2022-10-29T03:53:34;101813.56;;;17.98;70.83
56400;BME280;42298;53.638;9.876;2022-10-29T03:56:00;101811.31;;;17.91;71.44
56400;BME280;42298;53.638;9.876;2022-10-29T03:58:25;101829.16;;;17.99;70.77
56400;BME280;42298;53.638;9.876;2022-10-29T04:00:55;101830.50;;;17.93;70.51
56400;BME280;42298;53.638;9.876;2022-10-29T04:03:21;101835.91;;;17.89;69.49
56400;BME280;42298;53.638;9.876;2022-10-29T04:05:47;101818.72;;;17.79;70.66
56400;BME280;42298;53.638;9.876;2022-10-29T04:08:12;101822.34;;;17.71;71.81
56400;BME280;42298;53.638;9.876;2022-10-29T04:10:42;101817.25;;;17.73;71.26
56400;BME280;42298;53.638;9.876;2022-10-29T04:13:08;101816.47;;;17.64;70.05
56400;BME280;42298;53.638;9.876;2022-10-29T04:15:33;101813.84;;;17.59;71.02
56400;BME280;42298;53.638;9.876;2022-10-29T04:17:58;101807.78;;;17.48;71.21
56400;BME280;42298;53.638;9.876;2022-10-29T04:20:23;101798.97;;;17.46;70.97
56400;BME280;42298;53.638;9.876;2022-10-29T04:22:52;101804.81;;;17.62;68.93
56400;BME280;42298;53.638;9.876;2022-10-29T04:25:17;101804.03;;;17.36;69.36
56400;BME280;42298;53.638;9.876;2022-10-29T04:27:42;101802.41;;;17.17;70.00
56400;BME280;42298;53.638;9.876;2022-10-29T04:30:08;101821.56;;;17.10;70.95
56400;BME280;42298;53.638;9.876;2022-10-29T04:32:33;101814.69;;;17.08;70.99
56400;BME280;42298;53.638;9.876;2022-10-29T04:34:59;101827.28;;;17.05;69.45
56400;BME280;42298;53.638;9.876;2022-10-29T04:37:27;101819.28;;;17.04;70.53
56400;BME280;42298;53.638;9.876;2022-10-29T04:39:52;101827.94;;;17.02;71.08
56400;BME280;42298;53.638;9.876;2022-10-29T04:42:17;101832.69;;;17.02;69.53
56400;BME280;42298;53.638;9.876;2022-10-29T04:44:43;101826.63;;;16.91;69.49
56400;BME280;42298;53.638;9.876;2022-10-29T04:47:08;101819.25;;;16.87;69.57
56400;BME280;42298;53.638;9.876;2022-10-29T04:49:33;101824.00;;;16.86;70.62
56400;BME280;42298;53.638;9.876;2022-10-29T04:51:59;101830.88;;;16.80;70.11
56400;BME280;42298;53.638;9.876;2022-10-29T04:54:24;101838.72;;;16.78;71.63
56400;BME280;42298;53.638;9.876;2022-10-29T04:56:49;101825.31;;;16.80;71.63
56400;BME280;42298;53.638;9.876;2022-10-29T04:59:14;101823.50;;;16.84;71.49
56400;BME280;42298;53.638;9.876;2022-10-29T05:01:40;101842.00;;;16.89;72.61
56400;BME280;42298;53.638;9.876;2022-10-29T05:04:05;101855.47;;;16.95;71.02
56400;BME280;42298;53.638;9.876;2022-10-29T05:06:30;101852.00;;;16.90;70.45
56400;BME280;42298;53.638;9.876;2022-10-29T05:08:55;101847.25;;;16.90;70.27
56400;BME280;42298;53.638;9.876;2022-10-29T05:11:21;101849.06;;;16.86;69.97
56400;BME280;42298;53.638;9.876;2022-10-29T05:13:46;101836.44;;;16.80;69.77
56400;BME280;42298;53.638;9.876;2022-10-29T05:16:11;101842.00;;;16.80;70.08
56400;BME280;42298;53.638;9.876;2022-10-29T05:18:37;101849.22;;;16.81;69.92
56400;BME280;42298;53.638;9.876;2022-10-29T05:21:03;101850.84;;;16.82;69.92
56400;BME280;42298;53.638;9.876;2022-10-29T05:23:28;101869.53;;;16.90;69.94
56400;BME280;42298;53.638;9.876;2022-10-29T05:25:54;101868.88;;;16.93;70.31
56400;BME280;42298;53.638;9.876;2022-10-29T05:28:21;101870.84;;;17.01;71.08
56400;BME280;42298;53.638;9.876;2022-10-29T05:30:48;101863.34;;;17.10;72.88
56400;BME280;42298;53.638;9.876;2022-10-29T05:33:17;101845.47;;;17.11;73.23
56400;BME280;42298;53.638;9.876;2022-10-29T05:35:42;101854.31;;;17.22;74.11
56400;BME280;42298;53.638;9.876;2022-10-29T05:38:09;101843.19;;;17.39;73.17
56400;BME280;42298;53.638;9.876;2022-10-29T05:40:35;101851.25;;;17.49;73.30
56400;BME280;42298;53.638;9.876;2022-10-29T05:43:01;101852.50;;;17.60;72.33
56400;BME280;42298;53.638;9.876;2022-10-29T05:45:27;101858.25;;;17.64;71.80
56400;BME280;42298;53.638;9.876;2022-10-29T05:47:56;101855.63;;;17.76;72.10
56400;BME280;42298;53.638;9.876;2022-10-29T05:50:22;101861.16;;;17.84;71.87
56400;BME280;42298;53.638;9.876;2022-10-29T05:52:54;101866.41;;;17.94;71.87
56400;BME280;42298;53.638;9.876;2022-10-29T05:55:19;101851.63;;;17.94;72.06
56400;BME280;42298;53.638;9.876;2022-10-29T05:57:45;101854.25;;;17.99;71.59
56400;BME280;42298;53.638;9.876;2022-10-29T06:00:10;101853.72;;;18.05;71.69
56400;BME280;42298;53.638;9.876;2022-10-29T06:02:35;101844.06;;;18.03;71.44
56400;BME280;42298;53.638;9.876;2022-10-29T06:05:01;101846.34;;;18.09;71.75
56400;BME280;42298;53.638;9.876;2022-10-29T06:07:26;101835.53;;;18.08;71.12
56400;BME280;42298;53.638;9.876;2022-10-29T06:09:51;101843.22;;;18.11;70.32
56400;BME280;42298;53.638;9.876;2022-10-29T06:12:17;101855.50;;;18.10;70.86
56400;BME280;42298;53.638;9.876;2022-10-29T06:14:43;101848.97;;;18.06;71.21
56400;BME280;42298;53.638;9.876;2022-10-29T06:17:09;101858.19;;;17.98;72.16
56400;BME280;42298;53.638;9.876;2022-10-29T06:19:34;101842.13;;;17.95;72.43
56400;BME280;42298;53.638;9.876;2022-10-29T06:21:59;101849.50;;;17.91;73.18
56400;BME280;42298;53.638;9.876;2022-10-29T06:24:24;101858.84;;;17.95;72.92
56400;BME280;42298;53.638;9.876;2022-10-29T06:26:52;101856.50;;;18.05;72.55
56400;BME280;42298;53.638;9.876;2022-10-29T06:29:18;101851.47;;;17.99;72.78
56400;BME280;42298;53.638;9.876;2022-10-29T06:31:45;101854.72;;;18.01;72.60
56400;BME280;42298;53.638;9.876;2022-10-29T06:34:10;101869.81;;;18.00;72.42
56400;BME280;42298;53.638;9.876;2022-10-29T06:36:37;101866.41;;;17.94;72.60
56400;BME280;42298;53.638;9.876;2022-10-29T06:39:03;101861.81;;;17.90;73.02
56400;BME280;42298;53.638;9.876;2022-10-29T06:41:28;101846.88;;;17.94;72.47
56400;BME280;42298;53.638;9.876;2022-10-29T06:43:53;101854.25;;;17.99;72.08
56400;BME280;42298;53.638;9.876;2022-10-29T06:46:18;101844.91;;;17.95;72.31
56400;BME280;42298;53.638;9.876;2022-10-29T06:48:44;101869.00;;;17.99;71.68
56400;BME280;42298;53.638;9.876;2022-10-29T06:51:09;101879.19;;;17.95;71.97
56400;BME280;42298;53.638;9.876;2022-10-29T06:53:36;101876.06;;;17.97;71.95
56400;BME280;42298;53.638;9.876;2022-10-29T06:56:01;101879.84;;;17.92;72.05
56400;BME280;42298;53.638;9.876;2022-10-29T06:58:26;101882.47;;;17.97;71.70
56400;BME280;42298;53.638;9.876;2022-10-29T07:00:52;101884.13;;;17.90;71.75
56400;BME280;42298;53.638;9.876;2022-10-29T07:03:19;101896.22;;;17.94;72.34
56400;BME280;42298;53.638;9.876;2022-10-29T07:05:45;101890.50;;;17.99;71.91
56400;BME280;42298;53.638;9.876;2022-10-29T07:08:11;101881.59;;;18.05;71.65
56400;BME280;42298;53.638;9.876;2022-10-29T07:10:37;101896.66;;;18.13;71.55
56400;BME280;42298;53.638;9.876;2022-10-29T07:13:02;101884.56;;;18.09;71.92
56400;BME280;42298;53.638;9.876;2022-10-29T07:15:29;101897.13;;;18.23;71.63
56400;BME280;42298;53.638;9.876;2022-10-29T07:18:05;101883.50;;;18.30;71.42
56400;BME280;42298;53.638;9.876;2022-10-29T07:20:35;101903.16;;;18.34;71.23
56400;BME280;42298;53.638;9.876;2022-10-29T07:23:01;101912.22;;;18.39;70.90
56400;BME280;42298;53.638;9.876;2022-10-29T07:25:28;101899.25;;;18.35;70.72
56400;BME280;42298;53.638;9.876;2022-10-29T07:28:10;101905.63;;;18.35;71.12
56400;BME280;42298;53.638;9.876;2022-10-29T07:30:36;101914.69;;;18.41;71.12
56400;BME280;42298;53.638;9.876;2022-10-29T07:33:04;101900.88;;;18.44;70.74
56400;BME280;42298;53.638;9.876;2022-10-29T07:35:29;101899.91;;;18.32;71.18
56400;BME280;42298;53.638;9.876;2022-10-29T07:37:59;101912.69;;;18.41;70.52
56400;BME280;42298;53.638;9.876;2022-10-29T07:40:24;101910.91;;;18.28;71.32
56400;BME280;42298;53.638;9.876;2022-10-29T07:42:53;101921.06;;;18.33;71.37
56400;BME280;42298;53.638;9.876;2022-10-29T07:45:18;101924.34;;;18.35;71.53
56400;BME280;42298;53.638;9.876;2022-10-29T07:47:44;101930.94;;;18.30;71.36
56400;BME280;42298;53.638;9.876;2022-10-29T07:50:09;101933.50;;;18.35;71.50
56400;BME280;42298;53.638;9.876;2022-10-29T07:52:35;101931.56;;;18.36;71.43
56400;BME280;42298;53.638;9.876;2022-10-29T07:55:02;101932.06;;;18.29;71.48
56400;BME280;42298;53.638;9.876;2022-10-29T07:57:28;101919.91;;;18.34;72.09
56400;BME280;42298;53.638;9.876;2022-10-29T07:59:53;101944.81;;;18.47;71.49
56400;BME280;42298;53.638;9.876;2022-10-29T08:02:19;101925.25;;;18.56;71.68
56400;BME280;42298;53.638;9.876;2022-10-29T08:04:44;101938.66;;;18.71;71.63
56400;BME280;42298;53.638;9.876;2022-10-29T08:07:10;101938.75;;;18.83;70.76
56400;BME280;42298;53.638;9.876;2022-10-29T08:09:36;101936.94;;;18.87;70.23
56400;BME280;42298;53.638;9.876;2022-10-29T08:12:01;101933.06;;;18.79;69.81
56400;BME280;42298;53.638;9.876;2022-10-29T08:14:29;101935.19;;;18.74;70.13
56400;BME280;42298;53.638;9.876;2022-10-29T08:16:54;101935.19;;;18.74;70.18
56400;BME280;42298;53.638;9.876;2022-10-29T08:19:21;101939.25;;;18.85;70.15
56400;BME280;42298;53.638;9.876;2022-10-29T08:21:48;101919.50;;;18.61;70.09
56400;BME280;42298;53.638;9.876;2022-10-29T08:24:13;101916.22;;;18.59;70.21
56400;BME280;42298;53.638;9.876;2022-10-29T08:26:40;101901.13;;;18.60;70.26
56400;BME280;42298;53.638;9.876;2022-10-29T08:29:06;101904.81;;;18.72;69.45
56400;BME280;42298;53.638;9.876;2022-10-29T08:31:32;101893.47;;;18.77;69.73
56400;BME280;42298;53.638;9.876;2022-10-29T08:33:58;101898.88;;;18.82;69.11
56400;BME280;42298;53.638;9.876;2022-10-29T08:36:23;101886.53;;;18.83;69.99
56400;BME280;42298;53.638;9.876;2022-10-29T08:38:48;101882.31;;;19.07;69.29
56400;BME280;42298;53.638;9.876;2022-10-29T08:41:32;101881.22;;;19.20;68.36
56400;BME280;42298;53.638;9.876;2022-10-29T08:44:29;101893.00;;;19.25;68.32
56400;BME280;42298;53.638;9.876;2022-10-29T08:47:13;101875.25;;;19.30;68.10
56400;BME280;42298;53.638;9.876;2022-10-29T08:52:36;101867.72;;;19.63;67.74
56400;BME280;42298;53.638;9.876;2022-10-29T08:55:22;101875.78;;;20.09;68.98
56400;BME280;42298;53.638;9.876;2022-10-29T08:57:55;101877.94;;;20.24;65.96
56400;BME280;42298;53.638;9.876;2022-10-29T09:00:28;101890.53;;;20.30;65.22
56400;BME280;42298;53.638;9.876;2022-10-29T09:02:57;101910.97;;;20.42;65.41
56400;BME280;42298;53.638;9.876;2022-10-29T09:05:48;101917.75;;;20.53;64.97
56400;BME280;42298;53.638;9.876;2022-10-29T09:17:22;101898.16;;;20.65;64.50
56400;BME280;42298;53.638;9.876;2022-10-29T09:20:14;101894.22;;;21.03;63.26
56400;BME280;42298;53.638;9.876;2022-10-29T09:23:09;101891.63;;;21.10;62.03
56400;BME280;42298;53.638;9.876;2022-10-29T09:31:10;101912.03;;;21.34;61.72
56400;BME280;42298;53.638;9.876;2022-10-29T09:33:43;101901.41;;;21.16;62.26
56400;BME280;42298;53.638;9.876;2022-10-29T09:36:16;101903.41;;;21.15;62.20
56400;BME280;42298;53.638;9.876;2022-10-29T09:38:57;101893.66;;;21.37;61.95
56400;BME280;42298;53.638;9.876;2022-10-29T09:41:30;101879.78;;;21.40;61.63
56400;BME280;42298;53.638;9.876;2022-10-29T09:44:17;101876.56;;;21.54;60.80
56400;BME280;42298;53.638;9.876;2022-10-29T09:47:22;101869.31;;;21.53;60.16
56400;BME280;42298;53.638;9.876;2022-10-29T09:52:56;101854.91;;;21.39;59.89
56400;BME280;42298;53.638;9.876;2022-10-29T09:55:26;101857.13;;;21.33;60.81
56400;BME280;42298;53.638;9.876;2022-10-29T09:57:53;101849.34;;;21.27;61.04
56400;BME280;42298;53.638;9.876;2022-10-29T10:00:24;101848.59;;;21.42;61.09
56400;BME280;42298;53.638;9.876;2022-10-29T10:03:09;101838.59;;;21.56;60.73
56400;BME280;42298;53.638;9.876;2022-10-29T10:05:57;101844.06;;;21.53;60.63
56400;BME280;42298;53.638;9.876;2022-10-29T10:08:22;101832.16;;;21.28;61.19
56400;BME280;42298;53.638;9.876;2022-10-29T10:13:17;101837.19;;;21.23;61.89
56400;BME280;42298;53.638;9.876;2022-10-29T10:15:49;101836.75;;;21.21;61.88
56400;BME280;42298;53.638;9.876;2022-10-29T10:18:25;101837.88;;;21.20;62.14
56400;BME280;42298;53.638;9.876;2022-10-29T10:21:12;101837.47;;;21.06;62.01
56400;BME280;42298;53.638;9.876;2022-10-29T10:23:50;101853.34;;;21.02;62.31
56400;BME280;42298;53.638;9.876;2022-10-29T10:29:07;101867.13;;;20.83;63.13
56400;BME280;42298;53.638;9.876;2022-10-29T10:31:35;101868.16;;;20.90;62.79
56400;BME280;42298;53.638;9.876;2022-10-29T10:34:16;101858.03;;;20.98;62.83
56400;BME280;42298;53.638;9.876;2022-10-29T10:36:46;101869.34;;;20.89;62.86
56400;BME280;42298;53.638;9.876;2022-10-29T10:39:19;101868.28;;;20.94;62.81
56400;BME280;42298;53.638;9.876;2022-10-29T10:41:48;101865.03;;;21.04;62.88
56400;BME280;42298;53.638;9.876;2022-10-29T10:44:14;101851.72;;;21.01;62.88
56400;BME280;42298;53.638;9.876;2022-10-29T10:46:41;101850.66;;;20.93;63.20
56400;BME280;42298;53.638;9.876;2022-10-29T10:51:37;101841.44;;;20.68;64.21
56400;BME280;42298;53.638;9.876;2022-10-29T10:54:22;101843.81;;;20.66;64.35
56400;BME280;42298;53.638;9.876;2022-10-29T10:59:57;101833.06;;;20.68;64.31
56400;BME280;42298;53.638;9.876;2022-10-29T11:02:32;101829.81;;;20.66;64.67
56400;BME280;42298;53.638;9.876;2022-10-29T11:05:16;101835.06;;;20.68;65.00
56400;BME280;42298;53.638;9.876;2022-10-29T11:07:48;101838.06;;;20.75;64.52
56400;BME280;42298;53.638;9.876;2022-10-29T11:10:17;101845.91;;;20.69;64.51
56400;BME280;42298;53.638;9.876;2022-10-29T11:12:50;101833.19;;;20.60;64.65
56400;BME280;42298;53.638;9.876;2022-10-29T11:18:05;101834.94;;;20.52;65.42
56400;BME280;42298;53.638;9.876;2022-10-29T11:20:36;101842.06;;;20.62;65.27
56400;BME280;42298;53.638;9.876;2022-10-29T11:23:30;101826.66;;;20.68;65.14
56400;BME280;42298;53.638;9.876;2022-10-29T11:26:21;101833.38;;;20.91;64.84
56400;BME280;42298;53.638;9.876;2022-10-29T11:28:58;101819.03;;;21.05;64.92
56400;BME280;42298;53.638;9.876;2022-10-29T11:31:39;101823.31;;;21.14;64.23
56400;BME280;42298;53.638;9.876;2022-10-29T11:34:18;101812.53;;;21.28;64.33
56400;BME280;42298;53.638;9.876;2022-10-29T11:37:04;101818.88;;;21.25;63.90
56400;BME280;42298;53.638;9.876;2022-10-29T11:39:37;101807.53;;;21.22;64.21
56400;BME280;42298;53.638;9.876;2022-10-29T11:42:07;101809.50;;;21.21;63.99
56400;BME280;42298;53.638;9.876;2022-10-29T11:44:37;101804.38;;;21.23;64.13
56400;BME280;42298;53.638;9.876;2022-10-29T11:50:03;101797.25;;;21.26;64.04
56400;BME280;42298;53.638;9.876;2022-10-29T12:01:28;101781.97;;;21.51;63.59
56400;BME280;42298;53.638;9.876;2022-10-29T12:04:10;101778.88;;;21.40;64.14
56400;BME280;42298;53.638;9.876;2022-10-29T12:09:49;101785.63;;;21.39;64.17
56400;BME280;42298;53.638;9.876;2022-10-29T12:12:13;101750.06;;;21.28;64.21
56400;BME280;42298;53.638;9.876;2022-10-29T12:17:45;101756.81;;;21.39;64.21
56400;BME280;42298;53.638;9.876;2022-10-29T12:20:28;101760.88;;;21.41;64.24
56400;BME280;42298;53.638;9.876;2022-10-29T12:23:06;101753.00;;;21.47;64.28
56400;BME280;42298;53.638;9.876;2022-10-29T12:28:42;101747.81;;;21.76;63.20
56400;BME280;42298;53.638;9.876;2022-10-29T12:31:26;101752.34;;;21.81;63.12
56400;BME280;42298;53.638;9.876;2022-10-29T12:34:12;101768.66;;;21.91;62.91
56400;BME280;42298;53.638;9.876;2022-10-29T12:36:49;101768.28;;;22.08;62.62
56400;BME280;42298;53.638;9.876;2022-10-29T12:39:26;101762.66;;;22.23;62.26
56400;BME280;42298;53.638;9.876;2022-10-29T12:41:58;101754.78;;;22.29;61.85
56400;BME280;42298;53.638;9.876;2022-10-29T12:44:33;101757.31;;;22.34;62.38
56400;BME280;42298;53.638;9.876;2022-10-29T12:47:10;101751.84;;;22.41;61.81
56400;BME280;42298;53.638;9.876;2022-10-29T12:52:37;101740.63;;;22.57;60.97
56400;BME280;42298;53.638;9.876;2022-10-29T12:55:06;101739.16;;;22.63;60.94
56400;BME280;42298;53.638;9.876;2022-10-29T12:57:34;101748.84;;;22.65;61.07
56400;BME280;42298;53.638;9.876;2022-10-29T13:02:47;101740.75;;;22.79;60.97
56400;BME280;42298;53.638;9.876;2022-10-29T13:05:17;101730.97;;;22.92;60.56
56400;BME280;42298;53.638;9.876;2022-10-29T13:16:01;101733.19;;;22.83;60.17
56400;BME280;42298;53.638;9.876;2022-10-29T13:18:50;101733.19;;;22.83;60.08
56400;BME280;42298;53.638;9.876;2022-10-29T13:21:58;101732.75;;;22.81;60.25
56400;BME280;42298;53.638;9.876;2022-10-29T13:24:25;101731.25;;;22.68;60.44
56400;BME280;42298;53.638;9.876;2022-10-29T13:26:59;101716.34;;;22.64;60.56
56400;BME280;42298;53.638;9.876;2022-10-29T13:29:48;101715.06;;;22.62;60.42
56400;BME280;42298;53.638;9.876;2022-10-29T13:32:36;101713.81;;;22.59;60.59
56400;BME280;42298;53.638;9.876;2022-10-29T13:40:37;101727.78;;;22.56;60.70
56400;BME280;42298;53.638;9.876;2022-10-29T13:43:04;101733.41;;;22.56;61.29
56400;BME280;42298;53.638;9.876;2022-10-29T13:45:35;101728.16;;;22.54;61.35
56400;BME280;42298;53.638;9.876;2022-10-29T13:48:06;101726.06;;;22.51;61.24
56400;BME280;42298;53.638;9.876;2022-10-29T13:50:36;101727.50;;;22.45;60.84
56400;BME280;42298;53.638;9.876;2022-10-29T13:53:05;101728.25;;;22.42;61.33
56400;BME280;42298;53.638;9.876;2022-10-29T13:55:32;101717.00;;;22.42;61.36
56400;BME280;42298;53.638;9.876;2022-10-29T13:58:03;101693.63;;;22.38;61.03
56400;BME280;42298;53.638;9.876;2022-10-29T14:00:31;101717.16;;;22.49;60.77
56400;BME280;42298;53.638;9.876;2022-10-29T14:03:32;101717.34;;;22.56;61.33
56400;BME280;42298;53.638;9.876;2022-10-29T14:06:04;101722.78;;;22.49;61.08
56400;BME280;42298;53.638;9.876;2022-10-29T14:08:39;101717.91;;;22.46;60.79
56400;BME280;42298;53.638;9.876;2022-10-29T14:11:13;101712.19;;;22.42;60.67
56400;BME280;42298;53.638;9.876;2022-10-29T14:13:49;101698.59;;;22.44;60.48
56400;BME280;42298;53.638;9.876;2022-10-29T14:16:17;101702.25;;;22.45;60.35
56400;BME280;42298;53.638;9.876;2022-10-29T14:18:47;101704.81;;;22.34;60.89
56400;BME280;42298;53.638;9.876;2022-10-29T14:23:59;101689.13;;;22.33;61.14
56400;BME280;42298;53.638;9.876;2022-10-29T14:26:27;101691.94;;;22.33;61.05
56400;BME280;42298;53.638;9.876;2022-10-29T14:28:53;101697.38;;;22.26;60.89
56400;BME280;42298;53.638;9.876;2022-10-29T14:31:21;101700.56;;;22.25;60.66
56400;BME280;42298;53.638;9.876;2022-10-29T14:33:56;101687.25;;;22.22;61.31
56400;BME280;42298;53.638;9.876;2022-10-29T14:41:29;101683.84;;;22.13;60.96
56400;BME280;42298;53.638;9.876;2022-10-29T14:44:05;101693.63;;;22.38;60.75